createdAt,value
2023-01-11T00:00:25.509Z,101396.08
2023-01-11T00:03:18.045Z,101396.98
2023-01-11T00:05:47.056Z,101391.46
2023-01-11T00:08:16.061Z,101396.20
2023-01-11T00:10:45.093Z,101395.31
2023-01-11T00:13:14.564Z,101398.41
2023-01-11T00:15:43.697Z,101400.05
2023-01-11T00:18:12.786Z,101398.23
2023-01-11T00:20:42.719Z,101397.58
2023-01-11T00:23:16.298Z,101394.29
2023-01-11T00:25:45.283Z,101393.08
2023-01-11T00:28:17.074Z,101390.00
2023-01-11T00:30:49.163Z,101387.50
2023-01-11T00:33:18.305Z,101385.50
2023-01-11T00:35:47.271Z,101387.63
2023-01-11T00:38:36.249Z,101386.79
2023-01-11T00:41:25.582Z,101384.64
2023-01-11T00:44:12.917Z,101393.70
2023-01-11T00:47:00.054Z,101388.89
2023-01-11T00:49:29.210Z,101389.77
2023-01-11T00:52:00.910Z,101392.31
2023-01-11T00:54:32.272Z,101396.55
2023-01-11T00:57:01.460Z,101393.30
2023-01-11T00:59:30.808Z,101395.79
2023-01-11T01:02:00.052Z,101399.93
2023-01-11T01:04:31.885Z,101398.55
2023-01-11T01:07:00.905Z,101399.20
2023-01-11T01:09:30.219Z,101402.45
2023-01-11T01:12:02.047Z,101404.57
2023-01-11T01:14:32.792Z,101405.48
2023-01-11T01:17:07.056Z,101400.02
2023-01-11T01:19:38.378Z,101404.04
2023-01-11T01:22:07.545Z,101401.90
2023-01-11T01:24:36.825Z,101402.04
2023-01-11T01:27:06.113Z,101400.87
2023-01-11T01:29:35.277Z,101395.57
2023-01-11T01:32:18.632Z,101397.56
2023-01-11T01:34:47.652Z,101392.83
2023-01-11T01:37:16.881Z,101393.08
2023-01-11T01:39:45.862Z,101390.54
2023-01-11T01:42:16.542Z,101388.95
2023-01-11T01:45:19.009Z,101388.53
2023-01-11T01:47:51.657Z,101387.05
2023-01-11T01:50:52.475Z,101393.53
2023-01-11T01:53:24.889Z,101388.49
2023-01-11T01:55:58.363Z,101375.73
2023-01-11T01:58:35.270Z,101367.10
2023-01-11T02:04:23.345Z,101373.13
2023-01-11T02:06:59.604Z,101367.47
2023-01-11T02:09:35.098Z,101373.66
2023-01-11T02:12:05.917Z,101368.45
2023-01-11T02:14:38.342Z,101372.87
2023-01-11T02:17:08.434Z,101375.23
2023-01-11T02:19:55.621Z,101362.37
2023-01-11T02:23:09.831Z,101369.20
2023-01-11T02:26:19.009Z,101372.55
2023-01-11T02:29:13.895Z,101370.60
2023-01-11T02:31:51.476Z,101368.61
2023-01-11T02:34:33.055Z,101367.08
2023-01-11T02:37:16.362Z,101357.16
2023-01-11T02:39:57.325Z,101353.39
2023-01-11T02:42:53.974Z,101350.23
2023-01-11T02:45:39.763Z,101345.28
2023-01-11T02:48:19.656Z,101347.14
2023-01-11T02:50:57.770Z,101347.72
2023-01-11T02:53:34.143Z,101343.20
2023-01-11T02:56:06.867Z,101342.73
2023-01-11T02:58:40.845Z,101341.17
2023-01-11T03:01:11.014Z,101346.16
2023-01-11T03:03:41.023Z,101341.16
2023-01-11T03:06:17.007Z,101334.07
2023-01-11T03:09:39.172Z,101336.70
2023-01-11T03:16:08.509Z,101336.52
2023-01-11T03:19:37.058Z,101334.30
2023-01-11T03:22:12.219Z,101331.42
2023-01-11T03:25:06.969Z,101329.98
2023-01-11T03:28:18.614Z,101333.69
2023-01-11T03:30:57.490Z,101334.30
2023-01-11T03:33:35.025Z,101331.91
2023-01-11T03:36:15.224Z,101328.30
2023-01-11T03:38:51.713Z,101330.78
2023-01-11T03:41:24.689Z,101331.00
2023-01-11T03:43:57.018Z,101326.23
2023-01-11T03:46:35.111Z,101327.21
2023-01-11T03:49:22.903Z,101317.70
2023-01-11T03:51:54.769Z,101318.88
2023-01-11T03:54:52.720Z,101309.19
2023-01-11T03:57:24.597Z,101307.83
2023-01-11T03:59:54.525Z,101307.24
2023-01-11T04:02:28.509Z,101306.58
2023-01-11T04:04:57.458Z,101302.77
2023-01-11T04:07:26.565Z,101301.63
2023-01-11T04:09:56.472Z,101299.94
2023-01-11T04:12:25.516Z,101298.38
2023-01-11T04:14:54.611Z,101293.77
2023-01-11T04:17:23.729Z,101288.63
2023-01-11T04:19:52.951Z,101283.95
2023-01-11T04:22:21.934Z,101284.41
2023-01-11T04:24:51.056Z,101282.84
2023-01-11T04:27:20.262Z,101287.08
2023-01-11T04:29:51.986Z,101283.04
2023-01-11T04:32:22.789Z,101279.61
2023-01-11T04:34:52.246Z,101277.36
2023-01-11T04:37:21.417Z,101270.94
2023-01-11T04:40:18.806Z,101272.41
2023-01-11T04:42:48.341Z,101267.04
2023-01-11T04:45:20.208Z,101267.40
2023-01-11T04:47:59.029Z,101262.73
2023-01-11T04:50:28.785Z,101260.80
2023-01-11T04:53:00.620Z,101256.86
2023-01-11T04:55:29.962Z,101256.88
2023-01-11T04:57:58.953Z,101255.40
2023-01-11T05:00:28.141Z,101254.55
2023-01-11T05:02:59.829Z,101253.27
2023-01-11T05:05:33.453Z,101252.26
2023-01-11T05:08:02.470Z,101241.42
2023-01-11T05:10:32.736Z,101240.08
2023-01-11T05:13:04.520Z,101238.17
2023-01-11T05:15:35.423Z,101235.70
2023-01-11T05:18:05.342Z,101238.08
2023-01-11T05:20:34.489Z,101234.33
2023-01-11T05:23:04.779Z,101229.38
2023-01-11T05:25:35.058Z,101228.44
2023-01-11T05:28:04.341Z,101227.33
2023-01-11T05:30:36.218Z,101231.16
2023-01-11T05:33:07.794Z,101231.79
2023-01-11T05:35:48.898Z,101232.02
2023-01-11T05:38:20.743Z,101227.45
2023-01-11T05:40:55.899Z,101225.71
2023-01-11T05:43:25.608Z,101221.31
2023-01-11T05:46:02.327Z,101218.89
2023-01-11T05:48:31.350Z,101214.98
2023-01-11T05:51:01.571Z,101213.21
2023-01-11T05:53:31.228Z,101211.09
2023-01-11T05:56:01.296Z,101208.70
2023-01-11T05:58:32.797Z,101206.06
2023-01-11T06:01:02.012Z,101201.99
2023-01-11T06:03:31.036Z,101202.83
2023-01-11T06:06:00.782Z,101206.05
2023-01-11T06:08:46.189Z,101198.00
2023-01-11T06:11:30.544Z,101197.00
2023-01-11T06:13:59.522Z,101199.38
2023-01-11T06:17:00.655Z,101198.55
2023-01-11T06:19:29.930Z,101198.88
2023-01-11T06:21:59.125Z,101197.83
2023-01-11T06:24:28.445Z,101204.23
2023-01-11T06:26:57.537Z,101201.06
2023-01-11T06:29:26.444Z,101193.16
2023-01-11T06:32:00.788Z,101195.35
2023-01-11T06:34:29.939Z,101193.47
2023-01-11T06:36:58.963Z,101193.22
2023-01-11T06:39:30.498Z,101185.21
2023-01-11T06:42:20.713Z,101182.72
2023-01-11T06:44:49.969Z,101181.99
2023-01-11T06:47:19.163Z,101182.36
2023-01-11T06:49:48.119Z,101181.11
2023-01-11T06:52:24.509Z,101183.17
2023-01-11T06:54:53.546Z,101189.75
2023-01-11T06:57:23.072Z,101185.52
2023-01-11T06:59:52.107Z,101181.26
2023-01-11T07:02:21.193Z,101179.48
2023-01-11T07:04:50.419Z,101172.66
2023-01-11T07:07:41.645Z,101165.48
2023-01-11T07:10:13.448Z,101167.14
2023-01-11T07:12:42.573Z,101166.49
2023-01-11T07:15:15.312Z,101165.52
2023-01-11T07:17:44.530Z,101167.52
2023-01-11T07:20:14.702Z,101166.87
2023-01-11T07:23:07.663Z,101170.08
2023-01-11T07:25:37.434Z,101165.30
2023-01-11T07:28:08.627Z,101158.86
2023-01-11T07:30:55.946Z,101159.48
2023-01-11T07:33:26.107Z,101158.20
2023-01-11T07:35:55.633Z,101158.04
2023-01-11T07:38:24.690Z,101165.11
2023-01-11T07:40:53.814Z,101162.27
2023-01-11T07:43:23.326Z,101159.96
2023-01-11T07:45:53.592Z,101157.81
2023-01-11T07:48:25.710Z,101158.30
2023-01-11T07:50:55.034Z,101155.45
2023-01-11T07:53:25.914Z,101154.84
2023-01-11T07:55:56.853Z,101151.61
2023-01-11T07:58:34.318Z,101150.02
2023-01-11T08:01:03.448Z,101150.05
2023-01-11T08:03:32.611Z,101145.02
2023-01-11T08:06:01.743Z,101141.61
2023-01-11T08:08:30.776Z,101145.06
2023-01-11T08:11:18.169Z,101143.25
2023-01-11T08:14:07.341Z,101138.52
2023-01-11T08:16:39.675Z,101140.66
2023-01-11T08:19:08.938Z,101143.05
2023-01-11T08:21:38.083Z,101143.32
2023-01-11T08:24:07.749Z,101144.86
2023-01-11T08:26:36.880Z,101144.14
2023-01-11T08:29:06.031Z,101146.67
2023-01-11T08:31:37.840Z,101149.56
2023-01-11T08:34:09.074Z,101151.67
2023-01-11T08:36:38.091Z,101155.04
2023-01-11T08:39:07.168Z,101151.34
2023-01-11T08:41:52.325Z,101149.66
2023-01-11T08:44:33.347Z,101149.55
2023-01-11T08:47:03.891Z,101153.56
2023-01-11T08:49:33.065Z,101159.41
2023-01-11T08:52:04.867Z,101151.83
2023-01-11T08:54:33.918Z,101151.87
2023-01-11T08:57:02.882Z,101148.65
2023-01-11T08:59:31.991Z,101151.91
2023-01-11T09:02:02.338Z,101153.65
2023-01-11T09:04:33.348Z,101153.59
2023-01-11T09:07:03.385Z,101155.01
2023-01-11T09:09:32.318Z,101148.35
2023-01-11T09:12:04.731Z,101146.09
2023-01-11T09:14:34.601Z,101146.34
2023-01-11T09:17:03.588Z,101133.08
2023-01-11T09:19:33.123Z,101133.12
2023-01-11T09:22:02.834Z,101130.86
2023-01-11T09:24:31.862Z,101128.41
2023-01-11T09:27:04.810Z,101122.54
2023-01-11T09:29:37.007Z,101120.27
2023-01-11T09:32:06.859Z,101121.03
2023-01-11T09:34:35.839Z,101118.50
2023-01-11T09:37:06.149Z,101114.88
2023-01-11T09:39:36.468Z,101114.02
2023-01-11T09:42:31.186Z,101115.36
2023-01-11T09:45:06.601Z,101107.55
2023-01-11T09:47:40.316Z,101104.92
2023-01-11T09:50:18.043Z,101094.25
2023-01-11T09:52:52.051Z,101086.77
2023-01-11T09:55:29.771Z,101075.58
2023-01-11T09:58:15.423Z,101077.13
2023-01-11T10:01:01.387Z,101067.52
2023-01-11T10:04:11.256Z,101066.16
2023-01-11T10:06:51.131Z,101063.71
2023-01-11T10:18:31.923Z,101049.11
2023-01-11T10:19:18.482Z,101040.71
2023-01-11T10:21:45.868Z,101037.95
2023-01-11T10:24:24.236Z,101034.02
2023-01-11T10:26:58.197Z,101030.23
2023-01-11T10:29:49.740Z,101022.70
2023-01-11T10:35:55.821Z,101018.30
2023-01-11T10:38:45.939Z,101014.05
2023-01-11T10:41:25.601Z,101010.86
2023-01-11T10:44:11.198Z,101007.16
2023-01-11T10:46:44.904Z,101007.27
2023-01-11T10:49:36.569Z,100997.05
2023-01-11T10:52:18.801Z,100989.95
2023-01-11T10:54:54.022Z,100987.11
2023-01-11T10:57:35.630Z,100982.13
2023-01-11T11:00:22.205Z,100974.08
2023-01-11T11:03:26.562Z,100975.42
2023-01-11T11:06:01.796Z,100973.88
2023-01-11T11:08:38.290Z,100972.30
2023-01-11T11:11:12.572Z,100970.84
2023-01-11T11:13:53.029Z,100961.20
2023-01-11T11:16:46.292Z,100958.30
2023-01-11T11:19:21.674Z,100956.88
2023-01-11T11:21:52.084Z,100953.69
2023-01-11T11:24:27.210Z,100938.25
2023-01-11T11:27:01.143Z,100936.67
2023-01-11T11:29:30.501Z,100936.40
2023-01-11T11:32:01.361Z,100930.77
2023-01-11T11:34:30.728Z,100929.84
2023-01-11T11:37:00.951Z,100922.71
2023-01-11T11:39:31.203Z,100919.28
2023-01-11T11:42:15.200Z,100912.98
2023-01-11T11:44:44.517Z,100908.78
2023-01-11T11:47:16.643Z,100909.02
2023-01-11T11:49:46.892Z,100908.06
2023-01-11T11:52:18.027Z,100906.46
2023-01-11T11:55:14.362Z,100906.28
2023-01-11T11:57:55.415Z,100908.36
2023-01-11T12:00:27.963Z,100902.20
2023-01-11T12:03:00.289Z,100898.07
2023-01-11T12:05:30.604Z,100890.86
2023-01-11T12:08:00.476Z,100881.63
2023-01-11T12:10:34.202Z,100876.70
2023-01-11T12:13:04.757Z,100867.48
2023-01-11T12:15:34.912Z,100867.31
2023-01-11T12:18:27.541Z,100862.69
2023-01-11T12:20:56.594Z,100860.88
2023-01-11T12:23:26.491Z,100858.95
2023-01-11T12:26:18.896Z,100849.39
2023-01-11T12:28:59.529Z,100843.36
2023-01-11T12:31:36.374Z,100836.24
2023-01-11T12:34:18.151Z,100836.09
2023-01-11T12:36:56.484Z,100832.08
2023-01-11T12:39:33.948Z,100831.11
2023-01-11T12:42:43.250Z,100830.98
2023-01-11T12:45:21.880Z,100820.11
2023-01-11T12:48:07.726Z,100817.48
2023-01-11T12:50:53.983Z,100818.38
2023-01-11T12:53:48.535Z,100816.65
2023-01-11T12:56:46.041Z,100808.70
2023-01-11T12:59:32.204Z,100806.80
2023-01-11T13:02:35.947Z,100802.44
2023-01-11T13:05:43.004Z,100804.13
2023-01-11T13:08:19.128Z,100805.39
2023-01-11T13:12:01.343Z,100794.06
2023-01-11T13:15:32.933Z,100794.88
2023-01-11T13:18:32.662Z,100790.54
2023-01-11T13:21:25.357Z,100786.81
2023-01-11T13:24:12.645Z,100780.98
2023-01-11T13:26:53.128Z,100781.83
2023-01-11T13:29:31.587Z,100765.41
2023-01-11T13:32:05.379Z,100764.39
2023-01-11T13:34:39.192Z,100767.55
2023-01-11T13:37:14.357Z,100757.20
2023-01-11T13:39:50.409Z,100764.92
2023-01-11T13:42:24.905Z,100760.38
2023-01-11T13:45:02.623Z,100759.61
2023-01-11T13:50:28.275Z,100758.42
2023-01-11T13:53:09.345Z,100755.64
2023-01-11T13:55:52.578Z,100755.20
2023-01-11T13:58:28.471Z,100750.37
2023-01-11T14:01:06.831Z,100746.85
2023-01-11T14:03:44.983Z,100743.20
2023-01-11T14:06:34.422Z,100743.56
2023-01-11T14:09:24.088Z,100736.81
2023-01-11T14:12:04.734Z,100734.84
2023-01-11T14:14:49.031Z,100734.37
2023-01-11T14:17:43.104Z,100731.70
2023-01-11T14:20:23.101Z,100734.98
2023-01-11T14:23:03.438Z,100738.25
2023-01-11T14:25:38.263Z,100736.98
2023-01-11T14:28:31.147Z,100735.67
2023-01-11T14:31:28.303Z,100729.57
2023-01-11T14:34:29.650Z,100726.80
2023-01-11T14:37:23.526Z,100725.02
2023-01-11T14:40:05.978Z,100723.85
2023-01-11T14:43:00.426Z,100724.86
2023-01-11T14:45:46.044Z,100718.76
2023-01-11T14:48:27.452Z,100717.77
2023-01-11T14:51:09.761Z,100713.64
2023-01-11T14:53:42.732Z,100710.98
2023-01-11T14:56:36.390Z,100710.31
2023-01-11T14:59:07.466Z,100708.02
2023-01-11T15:02:22.311Z,100707.73
2023-01-11T15:05:26.465Z,100709.17
2023-01-11T15:08:19.835Z,100704.16
2023-01-11T15:10:55.654Z,100706.48
2023-01-11T15:13:27.319Z,100708.48
2023-01-11T15:16:28.424Z,100705.44
2023-01-11T15:18:59.624Z,100705.20
2023-01-11T15:21:28.830Z,100698.70
2023-01-11T15:23:59.211Z,100700.36
2023-01-11T15:26:28.777Z,100692.15
2023-01-11T15:28:59.458Z,100690.34
2023-01-11T15:31:35.745Z,100694.70
2023-01-11T15:34:25.335Z,100697.03
2023-01-11T15:37:23.921Z,100694.39
2023-01-11T15:39:59.082Z,100689.86
2023-01-11T15:43:00.568Z,100684.96
2023-01-11T15:46:37.168Z,100681.87
2023-01-11T15:49:39.029Z,100686.64
2023-01-11T15:52:40.264Z,100688.25
2023-01-11T15:55:40.087Z,100684.23
2023-01-11T15:58:50.114Z,100682.31
2023-01-11T16:01:24.162Z,100684.70
2023-01-11T16:04:25.317Z,100687.52
2023-01-11T16:07:01.879Z,100691.34
2023-01-11T16:10:00.202Z,100690.58
2023-01-11T16:12:51.940Z,100681.18
2023-01-11T16:15:34.837Z,100677.22
2023-01-11T16:18:14.005Z,100674.05
2023-01-11T16:20:56.039Z,100670.04
2023-01-11T16:23:25.285Z,100671.30
2023-01-11T16:25:57.405Z,100667.56
2023-01-11T16:28:31.543Z,100667.91
2023-01-11T16:31:03.887Z,100669.39
2023-01-11T16:33:34.372Z,100665.00
2023-01-11T16:36:11.318Z,100670.30
2023-01-11T16:38:47.400Z,100673.11
2023-01-11T16:41:17.515Z,100680.14
2023-01-11T16:43:53.923Z,100677.08
2023-01-11T16:47:06.361Z,100676.45
2023-01-11T16:49:36.533Z,100670.38
2023-01-11T16:52:39.304Z,100669.72
2023-01-11T16:55:22.286Z,100666.56
2023-01-11T16:57:56.816Z,100668.20
2023-01-11T17:00:35.501Z,100664.38
2023-01-11T17:03:20.849Z,100661.04
2023-01-11T17:06:02.045Z,100656.69
2023-01-11T17:08:34.378Z,100658.62
2023-01-11T17:11:13.756Z,100653.77
2023-01-11T17:14:14.103Z,100653.67
2023-01-11T17:16:47.714Z,100652.25
2023-01-11T17:19:18.951Z,100652.67
2023-01-11T17:21:52.386Z,100649.12
2023-01-11T17:24:25.241Z,100646.88
2023-01-11T17:26:57.747Z,100644.77
2023-01-11T17:29:30.848Z,100641.52
2023-01-11T17:32:02.130Z,100636.64
2023-01-11T17:34:36.816Z,100638.10
2023-01-11T17:37:12.290Z,100633.31
2023-01-11T17:39:44.979Z,100639.50
2023-01-11T17:42:34.653Z,100639.17
2023-01-11T17:45:16.895Z,100637.18
2023-01-11T17:47:48.034Z,100637.25
2023-01-11T17:50:39.564Z,100638.14
2023-01-11T17:53:16.060Z,100634.84
2023-01-11T17:55:53.342Z,100636.50
2023-01-11T17:58:25.950Z,100630.48
2023-01-11T18:01:19.956Z,100625.74
2023-01-11T18:03:51.797Z,100624.98
2023-01-11T18:06:27.593Z,100624.66
2023-01-11T18:08:58.840Z,100628.67
2023-01-11T18:11:29.854Z,100626.93
2023-01-11T18:14:01.654Z,100624.58
2023-01-11T18:16:31.384Z,100627.09
2023-01-11T18:19:01.009Z,100617.70
2023-01-11T18:21:41.499Z,100623.65
2023-01-11T18:24:33.873Z,100623.66
2023-01-11T18:27:28.715Z,100624.27
2023-01-11T18:30:01.739Z,100619.89
2023-01-11T18:32:53.136Z,100623.22
2023-01-11T18:35:23.780Z,100620.36
2023-01-11T18:37:53.018Z,100615.03
2023-01-11T18:40:22.637Z,100610.77
2023-01-11T18:42:53.488Z,100609.66
2023-01-11T18:45:24.329Z,100620.11
2023-01-11T18:47:53.453Z,100620.93
2023-01-11T18:50:23.399Z,100620.83
2023-01-11T18:52:52.546Z,100620.43
2023-01-11T18:55:21.786Z,100623.80
2023-01-11T18:57:51.173Z,100626.27
2023-01-11T19:00:21.346Z,100621.15
2023-01-11T19:05:27.837Z,100621.10
2023-01-11T19:07:57.193Z,100622.74
2023-01-11T19:10:26.806Z,100623.63
2023-01-11T19:12:59.803Z,100619.84
2023-01-11T19:15:29.594Z,100620.83
2023-01-11T19:18:01.999Z,100620.45
2023-01-11T19:23:05.906Z,100621.06
2023-01-11T19:25:35.350Z,100620.21
2023-01-11T19:28:05.478Z,100618.54
2023-01-11T19:30:34.750Z,100618.29
2023-01-11T19:33:04.302Z,100620.75
2023-01-11T19:35:33.600Z,100619.98
2023-01-11T19:38:03.068Z,100622.52
2023-01-11T19:40:32.411Z,100619.05
2023-01-11T19:43:01.795Z,100618.23
2023-01-11T19:48:32.446Z,100612.51
2023-01-11T19:51:07.947Z,100613.70
2023-01-11T19:53:37.611Z,100612.91
2023-01-11T19:56:08.666Z,100606.44
2023-01-11T19:58:38.687Z,100609.45
2023-01-11T20:01:12.885Z,100609.60
2023-01-11T20:03:42.944Z,100613.84
2023-01-11T20:06:12.384Z,100614.44
2023-01-11T20:08:44.556Z,100608.15
2023-01-11T20:11:17.385Z,100610.67
2023-01-11T20:13:50.199Z,100609.90
2023-01-11T20:16:24.633Z,100604.45
2023-01-11T20:18:55.691Z,100604.05
2023-01-11T20:21:30.972Z,100603.45
2023-01-11T20:24:01.953Z,100600.16
2023-01-11T20:26:36.326Z,100603.41
2023-01-11T20:29:05.808Z,100605.08
2023-01-11T20:31:35.419Z,100600.92
2023-01-11T20:34:07.121Z,100600.92
2023-01-11T20:36:36.584Z,100603.56
2023-01-11T20:39:08.452Z,100598.77
2023-01-11T20:41:47.117Z,100602.81
2023-01-11T20:44:19.502Z,100596.64
2023-01-11T20:46:53.210Z,100597.15
2023-01-11T20:49:24.568Z,100599.46
2023-01-11T20:51:56.065Z,100597.70
2023-01-11T20:54:39.889Z,100598.25
2023-01-11T20:57:11.639Z,100598.80
2023-01-11T20:59:45.057Z,100600.39
2023-01-11T21:02:15.044Z,100602.04
2023-01-11T21:04:44.181Z,100599.17
2023-01-11T21:07:33.113Z,100596.88
2023-01-11T21:10:04.529Z,100602.43
2023-01-11T21:12:33.863Z,100600.95
2023-01-11T21:18:09.044Z,100604.76
2023-01-11T21:20:38.703Z,100606.64
2023-01-11T21:23:08.081Z,100609.19
2023-01-11T21:25:37.605Z,100607.46
2023-01-11T21:28:07.117Z,100602.66
2023-01-11T21:30:39.132Z,100612.75
2023-01-11T21:33:08.626Z,100620.53
2023-01-11T21:35:38.040Z,100617.40
2023-01-11T21:38:07.216Z,100614.93
2023-01-11T21:40:36.867Z,100614.66
2023-01-11T21:43:07.175Z,100618.98
2023-01-11T21:45:36.599Z,100616.05
2023-01-11T21:48:10.450Z,100616.14
2023-01-11T21:50:39.658Z,100618.61
2023-01-11T21:53:09.051Z,100622.46
2023-01-11T21:55:38.257Z,100620.17
2023-01-11T21:58:07.976Z,100621.00
2023-01-11T22:00:37.149Z,100622.73
2023-01-11T22:03:06.744Z,100623.45
2023-01-11T22:05:36.310Z,100629.77
2023-01-11T22:08:05.853Z,100630.83
2023-01-11T22:10:36.053Z,100631.23
2023-01-11T22:13:05.459Z,100632.42
2023-01-11T22:15:34.944Z,100635.61
2023-01-11T22:18:04.418Z,100631.46
2023-01-11T22:20:35.185Z,100634.46
2023-01-11T22:23:04.743Z,100634.55
2023-01-11T22:25:36.175Z,100635.07
2023-01-11T22:28:06.204Z,100633.54
2023-01-11T22:30:35.448Z,100635.93
2023-01-11T22:33:06.698Z,100642.02
2023-01-11T22:35:35.934Z,100642.31
2023-01-11T22:38:05.283Z,100643.52
2023-01-11T22:40:34.468Z,100646.17
2023-01-11T22:43:03.608Z,100650.05
2023-01-11T22:45:32.880Z,100649.02
2023-01-11T22:48:02.207Z,100654.41
2023-01-11T22:50:31.469Z,100654.79
2023-01-11T22:53:03.393Z,100653.73
2023-01-11T22:55:33.995Z,100657.91
2023-01-11T22:58:03.407Z,100653.86
2023-01-11T23:00:32.747Z,100652.42
2023-01-11T23:03:02.586Z,100652.46
2023-01-11T23:05:32.039Z,100653.52
2023-01-11T23:08:01.334Z,100651.80
2023-01-11T23:10:30.615Z,100646.92
2023-01-11T23:13:18.260Z,100644.14
2023-01-11T23:15:55.155Z,100651.86
2023-01-11T23:18:24.792Z,100655.27
2023-01-11T23:20:54.023Z,100655.70
2023-01-11T23:23:27.849Z,100646.31
2023-01-11T23:25:57.899Z,100650.93
2023-01-11T23:28:30.119Z,100650.20
2023-01-11T23:30:59.806Z,100650.34
2023-01-11T23:33:29.525Z,100654.09
2023-01-11T23:35:59.451Z,100653.10
2023-01-11T23:38:31.986Z,100653.64
2023-01-11T23:41:25.231Z,100656.89
2023-01-11T23:43:54.682Z,100657.89
2023-01-11T23:46:42.500Z,100661.88
2023-01-11T23:49:13.870Z,100664.29
2023-01-11T23:51:43.613Z,100669.42
2023-01-11T23:54:13.571Z,100668.80
2023-01-11T23:56:43.847Z,100663.16
2023-01-11T23:59:13.339Z,100672.06
